createdAt,value
2018-03-14T00:00:20.506Z,9.80
2018-03-14T00:02:48.577Z,11.30
2018-03-14T00:05:16.651Z,9.90
2018-03-14T00:07:44.729Z,11.53
2018-03-14T00:10:12.795Z,12.70
2018-03-14T00:12:40.873Z,14.77
2018-03-14T00:15:08.934Z,7.00
2018-03-14T00:17:37.007Z,4.13
2018-03-14T00:20:05.062Z,3.42
2018-03-14T00:22:33.927Z,5.53
2018-03-14T00:25:01.990Z,5.70
2018-03-14T00:27:30.037Z,3.90
2018-03-14T00:29:58.112Z,7.40
2018-03-14T00:32:26.978Z,4.05
2018-03-14T00:34:55.046Z,4.10
2018-03-14T00:37:23.862Z,3.60
2018-03-14T00:39:52.306Z,5.17
2018-03-14T00:42:20.355Z,4.93
2018-03-14T00:44:48.446Z,5.23
2018-03-14T00:47:16.509Z,3.20
2018-03-14T00:49:45.512Z,2.90
2018-03-14T00:52:13.677Z,3.60
2018-03-14T00:54:41.742Z,3.60
2018-03-14T00:57:09.833Z,3.23
2018-03-14T00:59:38.596Z,3.40
2018-03-14T01:02:06.646Z,3.87
2018-03-14T01:04:35.504Z,4.10
2018-03-14T01:07:04.226Z,3.43
2018-03-14T01:09:33.069Z,5.07
2018-03-14T01:12:01.262Z,3.05
2018-03-14T01:14:29.437Z,3.43
2018-03-14T01:16:57.505Z,4.30
2018-03-14T01:19:25.566Z,4.12
2018-03-14T01:21:53.681Z,2.70
2018-03-14T01:24:22.502Z,2.97
2018-03-14T01:26:52.604Z,2.87
2018-03-14T01:29:20.763Z,2.27
2018-03-14T01:31:48.852Z,2.83
2018-03-14T01:34:17.029Z,2.50
2018-03-14T01:36:45.510Z,4.55
2018-03-14T01:39:13.571Z,2.37
2018-03-14T01:41:41.621Z,2.10
2018-03-14T01:44:09.698Z,1.95
2018-03-14T01:46:37.745Z,1.70
2018-03-14T01:49:06.589Z,2.15
2018-03-14T01:51:34.691Z,2.50
2018-03-14T01:54:03.912Z,2.42
2018-03-14T01:56:32.745Z,8.83
2018-03-14T01:59:00.858Z,2.35
2018-03-14T02:01:28.906Z,3.00
2018-03-14T02:03:57.003Z,2.53
2018-03-14T02:06:25.054Z,2.70
2018-03-14T02:08:53.146Z,2.40
2018-03-14T02:11:21.239Z,3.25
2018-03-14T02:13:49.305Z,2.97
2018-03-14T02:16:17.448Z,5.07
2018-03-14T02:18:46.169Z,3.03
2018-03-14T02:21:14.235Z,3.35
2018-03-14T02:23:42.322Z,3.57
2018-03-14T02:26:10.420Z,3.67
2018-03-14T02:28:38.601Z,4.27
2018-03-14T02:31:06.658Z,5.17
2018-03-14T02:33:34.742Z,6.20
2018-03-14T02:36:02.798Z,6.10
2018-03-14T02:38:30.868Z,9.27
2018-03-14T02:40:58.982Z,3.85
2018-03-14T02:43:27.054Z,7.00
2018-03-14T02:45:55.211Z,7.57
2018-03-14T02:48:23.307Z,6.50
2018-03-14T02:50:53.826Z,10.48
2018-03-14T02:53:21.878Z,5.93
2018-03-14T02:55:49.989Z,8.83
2018-03-14T02:58:18.039Z,5.50
2018-03-14T03:00:46.558Z,7.60
2018-03-14T03:03:14.613Z,6.83
2018-03-14T03:05:42.693Z,7.93
2018-03-14T03:08:11.395Z,6.03
2018-03-14T03:10:40.331Z,13.53
2018-03-14T03:13:08.338Z,6.20
2018-03-14T03:15:36.450Z,9.43
2018-03-14T03:18:04.500Z,10.40
2018-03-14T03:20:32.593Z,6.65
2018-03-14T03:23:00.638Z,12.17
2018-03-14T03:25:28.714Z,8.15
2018-03-14T03:27:56.752Z,9.07
2018-03-14T03:30:25.595Z,13.32
2018-03-14T03:32:53.642Z,9.52
2018-03-14T03:35:21.694Z,9.95
2018-03-14T03:37:50.551Z,10.97
2018-03-14T03:40:19.520Z,8.37
2018-03-14T03:42:47.621Z,12.93
2018-03-14T03:45:15.682Z,9.00
2018-03-14T03:47:43.732Z,9.37
2018-03-14T03:50:12.555Z,12.53
2018-03-14T03:52:40.610Z,8.47
2018-03-14T03:55:08.706Z,9.67
2018-03-14T03:57:36.772Z,11.23
2018-03-14T04:00:04.813Z,10.43
2018-03-14T04:02:33.631Z,9.40
2018-03-14T04:05:01.699Z,9.20
2018-03-14T04:07:30.538Z,11.80
2018-03-14T04:09:58.690Z,8.57
2018-03-14T04:12:26.762Z,15.20
2018-03-14T04:14:54.814Z,14.00
2018-03-14T04:17:23.658Z,8.37
2018-03-14T04:19:53.227Z,10.55
2018-03-14T04:22:21.242Z,12.80
2018-03-14T04:24:49.335Z,12.30
2018-03-14T04:27:17.726Z,14.60
2018-03-14T04:29:45.896Z,14.23
2018-03-14T04:32:13.944Z,15.23
2018-03-14T04:34:42.016Z,10.43
2018-03-14T04:37:10.114Z,12.18
2018-03-14T04:39:38.177Z,11.60
2018-03-14T04:42:06.286Z,13.60
2018-03-14T04:44:34.369Z,11.35
2018-03-14T04:47:02.437Z,14.67
2018-03-14T04:49:30.598Z,11.10
2018-03-14T04:51:58.706Z,16.40
2018-03-14T04:54:26.862Z,14.35
2018-03-14T04:56:54.910Z,13.60
2018-03-14T04:59:22.978Z,11.27
2018-03-14T05:01:52.166Z,16.27
2018-03-14T05:04:20.289Z,15.47
2018-03-14T05:06:48.350Z,14.83
2018-03-14T05:09:16.410Z,15.07
2018-03-14T05:11:44.511Z,15.27
2018-03-14T05:14:12.622Z,18.60
2018-03-14T05:16:40.674Z,12.67
2018-03-14T05:19:08.750Z,14.85
2018-03-14T05:21:36.918Z,11.60
2018-03-14T05:24:04.974Z,15.25
2018-03-14T05:26:33.455Z,12.33
2018-03-14T05:29:01.556Z,14.18
2018-03-14T05:31:29.623Z,13.30
2018-03-14T05:33:57.714Z,12.57
2018-03-14T05:36:25.781Z,16.43
2018-03-14T05:38:54.002Z,12.10
2018-03-14T05:41:22.059Z,12.87
2018-03-14T05:43:50.110Z,16.50
2018-03-14T05:46:18.834Z,15.35
2018-03-14T05:48:46.891Z,14.37
2018-03-14T05:51:14.955Z,9.70
2018-03-14T05:53:43.010Z,14.33
2018-03-14T05:56:11.082Z,12.27
2018-03-14T05:58:39.138Z,14.40
2018-03-14T06:01:07.990Z,15.32
2018-03-14T06:03:36.038Z,11.07
2018-03-14T06:06:04.106Z,16.40
2018-03-14T06:08:32.177Z,11.95
2018-03-14T06:11:00.235Z,9.45
2018-03-14T06:13:29.052Z,7.18
2018-03-14T06:15:57.138Z,8.15
2018-03-14T06:18:25.186Z,11.07
2018-03-14T06:20:54.045Z,9.63
2018-03-14T06:23:22.126Z,10.60
2018-03-14T06:25:50.306Z,11.12
2018-03-14T06:28:19.301Z,11.98
2018-03-14T06:30:47.373Z,11.40
2018-03-14T06:33:15.558Z,10.80
2018-03-14T06:35:43.718Z,11.53
2018-03-14T06:38:11.778Z,9.70
2018-03-14T06:40:39.827Z,8.60
2018-03-14T06:43:07.934Z,6.83
2018-03-14T06:45:35.998Z,6.93
2018-03-14T06:48:04.061Z,7.55
2018-03-14T06:50:32.166Z,7.43
2018-03-14T06:53:00.245Z,10.15
2018-03-14T06:55:28.309Z,10.85
2018-03-14T06:57:56.389Z,14.13
2018-03-14T07:00:42.392Z,8.10
2018-03-14T07:03:28.313Z,10.83
2018-03-14T07:06:07.195Z,11.13
2018-03-14T07:08:35.267Z,9.25
2018-03-14T07:11:03.362Z,15.47
2018-03-14T07:13:31.445Z,11.40
2018-03-14T07:15:59.595Z,14.77
2018-03-14T07:18:27.646Z,12.23
2018-03-14T07:20:55.755Z,12.00
2018-03-14T07:23:23.803Z,8.00
2018-03-14T07:25:52.585Z,20.12
2018-03-14T07:28:20.637Z,10.93
2018-03-14T07:30:50.583Z,11.50
2018-03-14T07:33:18.638Z,8.83
2018-03-14T07:35:47.505Z,11.40
2018-03-14T07:38:15.549Z,14.90
2018-03-14T07:40:43.619Z,8.60
2018-03-14T07:43:11.703Z,10.23
2018-03-14T07:45:40.486Z,10.20
2018-03-14T07:48:08.652Z,11.97
2018-03-14T07:50:36.702Z,12.00
2018-03-14T07:53:05.559Z,10.07
2018-03-14T07:55:33.621Z,10.50
2018-03-14T07:58:01.706Z,10.23
2018-03-14T08:00:29.765Z,10.03
2018-03-14T08:02:57.840Z,9.35
2018-03-14T08:05:25.941Z,9.20
2018-03-14T08:07:53.999Z,8.93
2018-03-14T08:10:22.082Z,11.10
2018-03-14T08:12:50.697Z,12.63
2018-03-14T08:15:18.750Z,14.10
2018-03-14T08:17:47.409Z,9.00
2018-03-14T08:20:15.527Z,12.20
2018-03-14T08:22:43.579Z,13.25
2018-03-14T08:25:11.749Z,13.63
2018-03-14T08:27:39.710Z,13.53
2018-03-14T08:30:07.835Z,10.20
2018-03-14T08:32:36.485Z,8.70
2018-03-14T08:35:04.525Z,7.60
2018-03-14T08:37:33.358Z,10.88
2018-03-14T08:40:01.410Z,11.60
2018-03-14T08:42:30.247Z,13.13
2018-03-14T08:44:58.850Z,12.60
2018-03-14T08:47:27.022Z,10.90
2018-03-14T08:49:55.107Z,11.20
2018-03-14T08:52:23.177Z,9.97
2018-03-14T08:54:51.253Z,11.90
2018-03-14T08:57:19.334Z,13.60
2018-03-14T08:59:47.390Z,13.00
2018-03-14T09:02:15.500Z,10.70
2018-03-14T09:04:43.724Z,12.30
2018-03-14T09:07:11.847Z,12.33
2018-03-14T09:09:40.014Z,16.77
2018-03-14T09:12:08.091Z,12.93
2018-03-14T09:14:36.180Z,10.43
2018-03-14T09:17:04.829Z,14.00
2018-03-14T09:19:32.877Z,11.60
2018-03-14T09:22:01.707Z,11.98
2018-03-14T09:24:29.757Z,13.03
2018-03-14T09:26:58.082Z,18.08
2018-03-14T09:29:26.909Z,11.97
2018-03-14T09:31:54.969Z,13.50
2018-03-14T09:34:23.054Z,15.30
2018-03-14T09:36:51.974Z,14.53
2018-03-14T09:39:21.933Z,13.23
2018-03-14T09:41:50.042Z,15.73
2018-03-14T09:44:18.098Z,10.20
2018-03-14T09:46:46.369Z,10.50
2018-03-14T09:49:14.455Z,10.87
2018-03-14T09:51:42.523Z,11.53
2018-03-14T09:54:10.623Z,13.67
2018-03-14T09:56:38.956Z,11.25
2018-03-14T09:59:07.026Z,14.48
2018-03-14T10:01:35.158Z,15.13
2018-03-14T10:04:03.355Z,12.50
2018-03-14T10:06:31.422Z,13.75
2018-03-14T10:09:00.266Z,15.63
2018-03-14T10:11:28.338Z,15.65
2018-03-14T10:13:56.421Z,16.50
2018-03-14T10:16:24.510Z,12.23
2018-03-14T10:18:53.435Z,13.18
2018-03-14T10:21:22.278Z,17.10
2018-03-14T10:23:50.353Z,14.10
2018-03-14T10:26:18.459Z,14.83
2018-03-14T10:28:46.523Z,12.80
2018-03-14T10:31:14.579Z,15.00
2018-03-14T10:33:42.681Z,29.00
2018-03-14T10:36:10.899Z,15.73
2018-03-14T10:38:38.964Z,12.02
2018-03-14T10:41:07.060Z,16.17
2018-03-14T10:43:35.142Z,13.00
2018-03-14T10:46:04.297Z,15.52
2018-03-14T10:48:32.790Z,16.97
2018-03-14T10:51:00.860Z,13.45
2018-03-14T10:53:28.931Z,12.97
2018-03-14T10:55:57.010Z,11.63
2018-03-14T10:58:25.131Z,20.00
2018-03-14T11:00:56.406Z,19.30
2018-03-14T11:03:29.973Z,20.20
2018-03-14T11:05:58.054Z,16.08
2018-03-14T11:08:26.118Z,14.60
2018-03-14T11:10:54.187Z,17.37
2018-03-14T11:13:22.887Z,18.58
2018-03-14T11:15:50.946Z,24.33
2018-03-14T11:18:19.017Z,10.90
2018-03-14T11:20:47.062Z,13.07
2018-03-14T11:23:15.134Z,13.17
2018-03-14T11:25:43.186Z,8.87
2018-03-14T11:28:12.022Z,10.57
2018-03-14T11:30:40.098Z,13.53
2018-03-14T11:33:08.245Z,12.17
2018-03-14T11:35:37.090Z,12.65
2018-03-14T11:38:05.257Z,9.27
2018-03-14T11:40:33.348Z,11.45
2018-03-14T11:43:01.445Z,12.43
2018-03-14T11:45:29.587Z,11.80
2018-03-14T11:47:57.738Z,8.33
2018-03-14T11:50:25.850Z,12.17
2018-03-14T11:52:54.239Z,12.40
2018-03-14T11:55:23.132Z,10.75
2018-03-14T11:57:52.314Z,13.27
2018-03-14T12:00:20.374Z,9.80
2018-03-14T12:02:48.477Z,9.93
2018-03-14T12:05:16.549Z,8.20
2018-03-14T12:07:44.610Z,13.63
2018-03-14T12:12:47.126Z,14.60
2018-03-14T12:15:15.218Z,10.83
2018-03-14T12:17:43.287Z,9.43
2018-03-14T12:20:11.355Z,11.30
2018-03-14T12:22:39.447Z,9.40
2018-03-14T12:25:07.502Z,11.77
2018-03-14T12:27:35.701Z,9.63
2018-03-14T12:30:03.782Z,7.93
2018-03-14T12:32:31.948Z,8.27
2018-03-14T12:35:00.039Z,7.63
2018-03-14T12:37:28.126Z,6.15
2018-03-14T12:39:56.197Z,10.00
2018-03-14T12:42:24.264Z,7.13
2018-03-14T12:44:53.462Z,11.43
2018-03-14T12:47:21.527Z,7.77
2018-03-14T12:49:49.604Z,6.82
2018-03-14T12:52:17.822Z,7.13
2018-03-14T12:54:45.902Z,8.90
2018-03-14T12:57:14.774Z,7.50
2018-03-14T12:59:42.935Z,9.40
2018-03-14T13:02:10.997Z,7.00
2018-03-14T13:04:39.129Z,9.53
2018-03-14T13:07:07.974Z,9.13
2018-03-14T13:09:36.074Z,7.23
2018-03-14T13:12:04.143Z,8.47
2018-03-14T13:14:32.316Z,9.20
2018-03-14T13:17:00.405Z,8.30
2018-03-14T13:19:28.481Z,11.45
2018-03-14T13:21:56.544Z,12.07
2018-03-14T13:24:24.730Z,12.40
2018-03-14T13:26:53.918Z,5.50
2018-03-14T13:29:21.997Z,8.10
2018-03-14T13:31:50.149Z,8.87
2018-03-14T13:34:18.270Z,8.90
2018-03-14T13:36:46.323Z,6.87
2018-03-14T13:39:14.410Z,9.20
2018-03-14T13:41:42.474Z,8.30
2018-03-14T13:44:10.549Z,8.07
2018-03-14T13:46:38.638Z,8.23
2018-03-14T13:49:06.712Z,9.70
2018-03-14T13:51:34.788Z,11.47
2018-03-14T13:54:02.870Z,13.13
2018-03-14T13:56:30.933Z,9.10
2018-03-14T13:58:59.013Z,7.28
2018-03-14T14:01:27.070Z,7.83
2018-03-14T14:03:55.135Z,5.63
2018-03-14T14:06:23.213Z,8.53
2018-03-14T14:08:52.252Z,5.18
2018-03-14T14:11:20.319Z,5.90
2018-03-14T14:13:48.399Z,6.07
2018-03-14T14:16:16.449Z,5.80
2018-03-14T14:18:44.517Z,9.37
2018-03-14T14:21:12.637Z,8.05
2018-03-14T14:23:40.725Z,9.47
2018-03-14T14:26:08.798Z,10.43
2018-03-14T14:28:36.879Z,11.20
2018-03-14T14:31:05.721Z,9.80
2018-03-14T14:33:33.804Z,7.53
2018-03-14T14:36:01.876Z,8.15
2018-03-14T14:38:29.952Z,6.86
2018-03-14T14:40:58.333Z,10.50
2018-03-14T14:43:26.406Z,9.03
2018-03-14T14:45:55.149Z,9.43
2018-03-14T14:48:23.212Z,9.80
2018-03-14T14:50:52.219Z,9.38
2018-03-14T14:53:20.273Z,9.93
2018-03-14T14:55:48.349Z,14.03
2018-03-14T14:58:16.438Z,11.47
2018-03-14T15:00:44.626Z,9.53
2018-03-14T15:03:12.698Z,13.45
2018-03-14T15:05:40.767Z,7.43
2018-03-14T15:08:08.817Z,6.47
2018-03-14T15:10:36.897Z,14.73
2018-03-14T15:13:04.958Z,12.07
2018-03-14T15:15:33.057Z,13.43
2018-03-14T15:18:01.149Z,8.17
2018-03-14T15:20:29.735Z,9.17
2018-03-14T15:22:57.801Z,8.45
2018-03-14T15:25:25.894Z,7.33
2018-03-14T15:27:53.979Z,7.97
2018-03-14T15:30:22.042Z,8.67
2018-03-14T15:32:50.130Z,12.33
2018-03-14T15:35:18.290Z,8.53
2018-03-14T15:37:46.362Z,14.50
2018-03-14T15:40:14.426Z,7.13
2018-03-14T15:42:42.618Z,7.03
2018-03-14T15:45:10.822Z,9.70
2018-03-14T15:47:38.871Z,8.73
2018-03-14T15:50:07.061Z,10.47
2018-03-14T15:52:35.597Z,13.13
2018-03-14T15:55:04.576Z,7.25
2018-03-14T15:57:32.730Z,13.20
2018-03-14T16:00:00.811Z,11.60
2018-03-14T16:02:28.976Z,15.40
2018-03-14T16:04:57.846Z,10.93
2018-03-14T16:07:26.510Z,12.27
2018-03-14T16:09:56.479Z,14.37
2018-03-14T16:12:24.625Z,14.60
2018-03-14T16:14:52.738Z,12.33
2018-03-14T16:17:20.932Z,11.73
2018-03-14T16:19:48.991Z,13.80
2018-03-14T16:22:17.082Z,13.27
2018-03-14T16:24:45.154Z,11.27
2018-03-14T16:27:13.217Z,14.10
2018-03-14T16:29:41.305Z,18.10
2018-03-14T16:32:09.410Z,16.37
2018-03-14T16:34:38.265Z,14.68
2018-03-14T16:37:06.327Z,14.90
2018-03-14T16:39:34.665Z,12.80
2018-03-14T16:42:03.616Z,12.23
2018-03-14T16:44:31.700Z,11.53
2018-03-14T16:46:59.759Z,17.27
2018-03-14T16:49:27.847Z,15.70
2018-03-14T16:51:56.765Z,10.88
2018-03-14T16:54:25.838Z,19.37
2018-03-14T16:56:53.932Z,13.10
2018-03-14T16:59:21.999Z,18.03
2018-03-14T17:01:50.071Z,17.27
2018-03-14T17:04:19.273Z,17.20
2018-03-14T17:06:47.340Z,14.17
2018-03-14T17:09:16.045Z,19.23
2018-03-14T17:11:44.219Z,24.63
2018-03-14T17:14:12.290Z,20.92
2018-03-14T17:16:40.355Z,19.53
2018-03-14T17:19:08.446Z,18.53
2018-03-14T17:21:36.519Z,23.60
2018-03-14T17:24:04.609Z,17.52
2018-03-14T17:26:32.825Z,16.97
2018-03-14T17:29:00.858Z,18.47
2018-03-14T17:31:30.042Z,17.93
2018-03-14T17:33:58.119Z,21.92
2018-03-14T17:36:26.230Z,21.27
2018-03-14T17:38:54.262Z,20.23
2018-03-14T17:41:22.345Z,16.53
2018-03-14T17:43:50.438Z,24.70
2018-03-14T17:46:18.510Z,17.87
2018-03-14T17:48:46.534Z,26.80
2018-03-14T17:51:15.397Z,20.73
2018-03-14T17:53:44.225Z,20.33
2018-03-14T17:56:12.364Z,22.93
2018-03-14T17:58:40.438Z,24.93
2018-03-14T18:01:08.514Z,23.87
2018-03-14T18:03:36.579Z,20.45
2018-03-14T18:06:04.652Z,19.95
2018-03-14T18:08:32.726Z,25.23
2018-03-14T18:11:00.794Z,27.17
2018-03-14T18:13:28.995Z,24.03
2018-03-14T18:15:57.092Z,20.50
2018-03-14T18:18:25.177Z,18.87
2018-03-14T18:20:54.241Z,20.87
2018-03-14T18:23:22.330Z,25.90
2018-03-14T18:25:50.409Z,22.23
2018-03-14T18:28:18.506Z,26.37
2018-03-14T18:30:46.570Z,20.10
2018-03-14T18:33:14.649Z,21.37
2018-03-14T18:35:42.710Z,26.35
2018-03-14T18:38:10.774Z,27.63
2018-03-14T18:40:38.846Z,24.17
2018-03-14T18:43:06.921Z,33.63
2018-03-14T18:45:34.978Z,17.65
2018-03-14T18:48:03.084Z,25.90
2018-03-14T18:50:31.124Z,34.60
2018-03-14T18:52:59.198Z,24.20
2018-03-14T18:55:27.265Z,29.53
2018-03-14T18:57:56.114Z,49.63
2018-03-14T19:00:24.191Z,21.60
2018-03-14T19:02:53.120Z,24.13
2018-03-14T19:05:21.977Z,27.27
2018-03-14T19:07:50.154Z,19.05
2018-03-14T19:10:18.326Z,28.83
2018-03-14T19:12:46.418Z,24.03
2018-03-14T19:15:14.478Z,29.30
2018-03-14T19:17:42.558Z,29.33
2018-03-14T19:20:10.634Z,27.37
2018-03-14T19:22:38.818Z,25.97
2018-03-14T19:25:06.873Z,29.57
2018-03-14T19:27:34.966Z,28.03
2018-03-14T19:30:03.397Z,29.10
2018-03-14T19:32:32.222Z,27.50
2018-03-14T19:35:02.175Z,24.73
2018-03-14T19:37:31.391Z,25.77
2018-03-14T19:39:59.438Z,26.60
2018-03-14T19:42:27.630Z,27.05
2018-03-14T19:44:55.678Z,27.70
2018-03-14T19:47:23.780Z,34.93
2018-03-14T19:49:52.364Z,27.03
2018-03-14T19:52:20.437Z,26.57
2018-03-14T19:54:48.491Z,29.93
2018-03-14T19:57:16.551Z,26.48
2018-03-14T19:59:44.697Z,31.20
2018-03-14T20:02:12.863Z,31.10
2018-03-14T20:04:40.922Z,28.52
2018-03-14T20:07:09.102Z,31.10
2018-03-14T20:09:37.176Z,28.80
2018-03-14T20:12:05.251Z,29.33
2018-03-14T20:14:33.330Z,27.40
2018-03-14T20:17:02.020Z,32.73
2018-03-14T20:19:30.074Z,31.53
2018-03-14T20:21:58.131Z,30.15
2018-03-14T20:24:26.198Z,31.80
2018-03-14T20:26:55.162Z,31.37
2018-03-14T20:29:23.322Z,29.50
2018-03-14T20:31:53.126Z,32.83
2018-03-14T20:34:21.194Z,35.67
2018-03-14T20:36:49.289Z,32.27
2018-03-14T20:39:17.339Z,25.60
2018-03-14T20:41:45.410Z,33.40
2018-03-14T20:44:13.466Z,31.20
2018-03-14T20:46:42.339Z,28.70
2018-03-14T20:49:10.408Z,34.13
2018-03-14T20:51:40.636Z,30.20
2018-03-14T20:54:08.829Z,34.70
2018-03-14T20:56:36.874Z,33.93
2018-03-14T20:59:04.970Z,37.33
2018-03-14T21:01:33.852Z,38.93
2018-03-14T21:04:02.634Z,34.78
2018-03-14T21:06:30.802Z,34.63
2018-03-14T21:08:58.878Z,33.47
2018-03-14T21:11:26.951Z,43.47
2018-03-14T21:13:55.015Z,36.80
2018-03-14T21:16:23.111Z,30.27
2018-03-14T21:18:52.295Z,33.70
2018-03-14T21:21:20.382Z,35.33
2018-03-14T21:23:48.454Z,36.53
2018-03-14T21:26:16.528Z,37.10
2018-03-14T21:28:44.607Z,38.40
2018-03-14T21:31:12.682Z,36.53
2018-03-14T21:33:40.746Z,35.05
2018-03-14T21:36:08.808Z,34.77
2018-03-14T21:38:36.899Z,32.75
2018-03-14T21:41:04.967Z,36.97
2018-03-14T21:43:33.050Z,32.40
2018-03-14T21:46:01.117Z,36.53
2018-03-14T21:48:29.236Z,37.30
2018-03-14T21:50:57.308Z,34.13
2018-03-14T21:53:25.378Z,33.03
2018-03-14T21:55:53.448Z,39.20
2018-03-14T21:58:21.525Z,36.03
2018-03-14T22:00:49.641Z,40.13
2018-03-14T22:03:17.652Z,39.25
2018-03-14T22:05:45.770Z,35.70
2018-03-14T22:08:13.954Z,32.70
2018-03-14T22:10:43.559Z,38.58
2018-03-14T22:13:11.738Z,40.33
2018-03-14T22:15:39.823Z,34.57
2018-03-14T22:18:07.897Z,36.50
2018-03-14T22:20:35.962Z,40.03
2018-03-14T22:23:04.450Z,36.53
2018-03-14T22:25:33.258Z,36.30
2018-03-14T22:28:01.331Z,44.33
2018-03-14T22:30:29.399Z,36.53
2018-03-14T22:32:57.466Z,36.77
2018-03-14T22:35:25.549Z,37.20
2018-03-14T22:37:53.605Z,43.87
2018-03-14T22:40:21.674Z,39.37
2018-03-14T22:42:49.733Z,40.63
2018-03-14T22:45:17.808Z,36.87
2018-03-14T22:47:46.749Z,36.30
2018-03-14T22:50:14.923Z,37.00
2018-03-14T22:52:42.997Z,42.40
2018-03-14T22:55:11.050Z,39.67
2018-03-14T22:57:39.138Z,37.33
2018-03-14T23:00:07.204Z,44.28
2018-03-14T23:02:35.278Z,43.07
2018-03-14T23:05:04.514Z,37.88
2018-03-14T23:07:33.701Z,44.00
2018-03-14T23:10:01.774Z,45.67
2018-03-14T23:12:29.852Z,44.33
2018-03-14T23:14:57.934Z,44.83
2018-03-14T23:17:26.006Z,35.70
2018-03-14T23:19:54.077Z,39.30
2018-03-14T23:22:22.163Z,41.77
2018-03-14T23:24:50.214Z,42.40
2018-03-14T23:27:18.322Z,40.92
2018-03-14T23:29:46.939Z,45.90
2018-03-14T23:32:15.008Z,50.40
2018-03-14T23:34:43.841Z,47.50
2018-03-14T23:37:11.969Z,40.95
2018-03-14T23:39:40.763Z,44.37
2018-03-14T23:42:08.850Z,42.72
2018-03-14T23:44:37.006Z,44.80
2018-03-14T23:47:05.073Z,43.53
2018-03-14T23:49:34.259Z,44.93
2018-03-14T23:52:02.322Z,43.50
2018-03-14T23:54:30.434Z,48.73
2018-03-14T23:56:58.531Z,38.88
2018-03-14T23:59:26.603Z,46.23
